Terminal Aerodrome Forecast
Issued by NWS Bismarck, ND

Home | Current Version | Previous Version | Graphics & Text | Print | Product List | Glossary On
Versions: 1 2 3 4 5 6 7 8 9 10 11 12 13 14 15 16
000
FTUS43 KBIS 241800 AAA
TAFISN
TAF AMD
KISN 241825Z 2418/2518 28022G32KT P6SM SCT200
     FM242300 28012KT P6SM FEW170
     FM250200 27006KT P6SM FEW190
     FM251100 VRB03KT P6SM SCT120=

USA.gov is the U.S. government's official web portal to all federal, state and local government web resources and services.